DNSO

Sadiq Abubakar III International Airport

Sokoto, Nigeria
TAF DNSO 210330Z 2106/2212 27010KT CAVOK
Issued Valid From Valid To
Apr-21 @ 03:30 UTC
(6 hours ago)
Apr-21 @ 06:00 UTC
(4 hours ago)
Apr-22 @ 12:00 UTC
(-1 days ago)
Apr-21 @ 06:00 to Apr-22 @ 12:00
TAF DNSO 210330Z 2106/2212 27010KT CAVOK
Wind Visibility Clouds Conditions
270° at 10 knots 10,000+ meters
  • No significant clouds
TAF DNSO 210330Z 2106/2212 27010KT CAVOK
Issued Apr-21 @ 03:30 UTC
(6 hours ago)
Valid From Apr-21 @ 06:00 UTC
(4 hours ago)
Valid To Apr-22 @ 12:00 UTC
(-1 days ago)
Apr-21 @ 06:00 - Apr-22 @ 12:00
Wind Visibility
270° at 10 knots 10,000+ meters
Clouds
  • No significant clouds
Conditions